首页
METAR-TAF:

METAR-TAF

机场 :

Moosonee, 安大略省, 加拿大

纬度: 51-16N, 经度: 080-39W, 海拔: 10米

当前天气观测

该预报发布于12分钟前的22:04 UTC
风速4节,风向多变
温度 9°C
湿度 87%
气压 1008 hPa
能見度: 11.3公里
多云层高于4400英尺
阴天层高于5500英尺

METAR: CYMO 222204Z AUTO VRB04KT 7SM RA BKN044 OVC055 09/07 A2976 RMK PRESFR SLP078

时间: 18:16 (22:16 UTC)

预报

该预报发布于4小时和38分钟前的17:38 UTC
预报有效从22日的 18点(UTC)到 23日的 06点(UTC)
风速12节,风向西,有时为22节阵风
能見度: 10公里
散云层高于4000英尺
多云层高于6000英尺
短暂存在
从 22日的 18点(UTC)到 23日的 02点(UTC)
能見度: 10公里
多云层高于4000英尺
阴天层高于6000英尺
小阵雨
成为
从 22日的 22点(UTC)到 22日的 24点(UTC)
风速8节,风向西
从 23日的 0200点(UTC)
风速8节,风向南转西南
能見度: 10公里
散云层高于6000英尺

TAF: CYMO 221738Z 2218/2306 26012G22KT P6SM SCT040 BKN060 TEMPO 2218/2302 P6SM -SHRA BKN040 OVC060 BECMG 2222/2224 26008KT FM230200 20008KT P6SM SCT060 RMK FCST BASED ON AUTO OBS. NXT FCST BY 230000Z

超过4000个机场的气象观测和天气预报(METAR&TAF报告)。

可查询的气象台以黄色和红色小点在地图上表示。

将鼠标移到小点上方,可查看气象台名称。

然后点击查看天气观测和预报。

如需切换地图:点击带黑十字的绿色按钮放大地图;点击带横线的绿色按钮缩小地图;或者点击绿色箭头查看邻近地区的地图。


METAR-TAF: